sensor_id;sensor_type;location;lat;lon;timestamp;P1;durP1;ratioP1;P2;durP2;ratioP2
38629;SDS011;24384;51.988;4.644;2023-11-19T00:01:10;45.50;;;6.80;;
38629;SDS011;24384;51.988;4.644;2023-11-19T00:03:35;40.80;;;7.30;;
38629;SDS011;24384;51.988;4.644;2023-11-19T00:06:01;44.40;;;8.48;;
38629;SDS011;24384;51.988;4.644;2023-11-19T00:08:26;38.70;;;6.30;;
38629;SDS011;24384;51.988;4.644;2023-11-19T00:10:52;43.80;;;9.00;;
38629;SDS011;24384;51.988;4.644;2023-11-19T00:13:17;31.65;;;6.57;;
38629;SDS011;24384;51.988;4.644;2023-11-19T00:15:42;36.42;;;6.00;;
38629;SDS011;24384;51.988;4.644;2023-11-19T00:18:07;39.38;;;8.25;;
38629;SDS011;24384;51.988;4.644;2023-11-19T00:20:33;35.42;;;6.13;;
38629;SDS011;24384;51.988;4.644;2023-11-19T00:22:58;32.75;;;5.43;;
38629;SDS011;24384;51.988;4.644;2023-11-19T00:25:24;37.78;;;6.45;;
38629;SDS011;24384;51.988;4.644;2023-11-19T00:27:50;46.05;;;7.28;;
38629;SDS011;24384;51.988;4.644;2023-11-19T00:30:16;44.13;;;8.27;;
38629;SDS011;24384;51.988;4.644;2023-11-19T00:32:41;39.97;;;7.40;;
38629;SDS011;24384;51.988;4.644;2023-11-19T00:35:07;41.42;;;7.55;;
38629;SDS011;24384;51.988;4.644;2023-11-19T00:37:33;48.78;;;8.27;;
38629;SDS011;24384;51.988;4.644;2023-11-19T00:39:59;45.20;;;7.78;;
38629;SDS011;24384;51.988;4.644;2023-11-19T00:42:24;40.72;;;7.97;;
38629;SDS011;24384;51.988;4.644;2023-11-19T00:44:50;47.53;;;6.95;;
38629;SDS011;24384;51.988;4.644;2023-11-19T00:47:15;37.67;;;6.90;;
38629;SDS011;24384;51.988;4.644;2023-11-19T00:49:40;60.38;;;10.25;;
38629;SDS011;24384;51.988;4.644;2023-11-19T00:52:06;58.08;;;8.77;;
38629;SDS011;24384;51.988;4.644;2023-11-19T00:54:32;45.72;;;9.40;;
38629;SDS011;24384;51.988;4.644;2023-11-19T00:56:57;47.88;;;6.80;;
38629;SDS011;24384;51.988;4.644;2023-11-19T00:59:24;53.42;;;8.38;;
38629;SDS011;24384;51.988;4.644;2023-11-19T01:01:50;51.70;;;10.32;;
38629;SDS011;24384;51.988;4.644;2023-11-19T01:04:16;45.42;;;8.98;;
38629;SDS011;24384;51.988;4.644;2023-11-19T01:06:41;45.75;;;7.78;;
38629;SDS011;24384;51.988;4.644;2023-11-19T01:09:07;37.22;;;8.18;;
38629;SDS011;24384;51.988;4.644;2023-11-19T01:11:33;51.30;;;7.25;;
38629;SDS011;24384;51.988;4.644;2023-11-19T01:13:58;50.47;;;7.70;;
38629;SDS011;24384;51.988;4.644;2023-11-19T01:16:24;40.67;;;7.45;;
38629;SDS011;24384;51.988;4.644;2023-11-19T01:18:51;47.70;;;8.35;;
38629;SDS011;24384;51.988;4.644;2023-11-19T01:21:17;55.75;;;8.38;;
38629;SDS011;24384;51.988;4.644;2023-11-19T01:23:43;44.90;;;9.50;;
38629;SDS011;24384;51.988;4.644;2023-11-19T01:26:09;46.10;;;8.93;;
38629;SDS011;24384;51.988;4.644;2023-11-19T01:28:39;42.53;;;8.13;;
38629;SDS011;24384;51.988;4.644;2023-11-19T01:31:10;48.60;;;9.05;;
38629;SDS011;24384;51.988;4.644;2023-11-19T01:33:36;44.00;;;8.88;;
38629;SDS011;24384;51.988;4.644;2023-11-19T01:36:01;47.53;;;7.45;;
38629;SDS011;24384;51.988;4.644;2023-11-19T01:38:28;58.53;;;8.82;;
38629;SDS011;24384;51.988;4.644;2023-11-19T01:40:59;45.22;;;7.53;;
38629;SDS011;24384;51.988;4.644;2023-11-19T01:43:33;43.88;;;8.27;;
38629;SDS011;24384;51.988;4.644;2023-11-19T01:46:00;46.00;;;8.93;;
38629;SDS011;24384;51.988;4.644;2023-11-19T01:48:26;38.47;;;7.18;;
38629;SDS011;24384;51.988;4.644;2023-11-19T01:50:51;51.15;;;9.77;;
38629;SDS011;24384;51.988;4.644;2023-11-19T01:53:19;41.00;;;7.95;;
38629;SDS011;24384;51.988;4.644;2023-11-19T01:55:48;48.72;;;8.65;;
38629;SDS011;24384;51.988;4.644;2023-11-19T01:58:14;44.50;;;7.95;;
38629;SDS011;24384;51.988;4.644;2023-11-19T02:00:40;62.20;;;11.32;;
38629;SDS011;24384;51.988;4.644;2023-11-19T02:03:06;66.38;;;9.30;;
38629;SDS011;24384;51.988;4.644;2023-11-19T02:05:33;55.30;;;8.82;;
38629;SDS011;24384;51.988;4.644;2023-11-19T02:07:59;51.08;;;8.93;;
38629;SDS011;24384;51.988;4.644;2023-11-19T02:10:25;50.90;;;8.98;;
38629;SDS011;24384;51.988;4.644;2023-11-19T02:12:50;41.22;;;8.30;;
38629;SDS011;24384;51.988;4.644;2023-11-19T02:15:16;48.60;;;9.05;;
38629;SDS011;24384;51.988;4.644;2023-11-19T02:17:44;53.30;;;10.57;;
38629;SDS011;24384;51.988;4.644;2023-11-19T02:20:09;38.30;;;7.05;;
38629;SDS011;24384;51.988;4.644;2023-11-19T02:22:38;54.55;;;8.95;;
38629;SDS011;24384;51.988;4.644;2023-11-19T02:25:06;51.67;;;10.60;;
38629;SDS011;24384;51.988;4.644;2023-11-19T02:30:27;64.00;;;13.23;;
38629;SDS011;24384;51.988;4.644;2023-11-19T02:32:54;50.33;;;10.20;;
38629;SDS011;24384;51.988;4.644;2023-11-19T02:35:28;58.08;;;9.48;;
38629;SDS011;24384;51.988;4.644;2023-11-19T02:37:56;59.90;;;10.32;;
38629;SDS011;24384;51.988;4.644;2023-11-19T02:40:23;58.95;;;9.27;;
38629;SDS011;24384;51.988;4.644;2023-11-19T02:42:53;61.58;;;9.65;;
38629;SDS011;24384;51.988;4.644;2023-11-19T02:45:19;54.15;;;8.52;;
38629;SDS011;24384;51.988;4.644;2023-11-19T02:47:44;69.70;;;10.18;;
38629;SDS011;24384;51.988;4.644;2023-11-19T02:50:10;61.13;;;8.63;;
38629;SDS011;24384;51.988;4.644;2023-11-19T02:52:40;61.20;;;12.23;;
38629;SDS011;24384;51.988;4.644;2023-11-19T02:55:06;53.00;;;10.32;;
38629;SDS011;24384;51.988;4.644;2023-11-19T02:57:35;57.20;;;9.00;;
38629;SDS011;24384;51.988;4.644;2023-11-19T03:00:01;57.97;;;10.07;;
38629;SDS011;24384;51.988;4.644;2023-11-19T03:02:36;60.90;;;11.15;;
38629;SDS011;24384;51.988;4.644;2023-11-19T03:05:09;57.45;;;10.52;;
38629;SDS011;24384;51.988;4.644;2023-11-19T03:07:36;46.47;;;10.38;;
38629;SDS011;24384;51.988;4.644;2023-11-19T03:10:01;53.92;;;9.75;;
38629;SDS011;24384;51.988;4.644;2023-11-19T03:12:26;51.42;;;10.25;;
38629;SDS011;24384;51.988;4.644;2023-11-19T03:14:52;53.92;;;10.25;;
38629;SDS011;24384;51.988;4.644;2023-11-19T03:17:17;46.78;;;7.63;;
38629;SDS011;24384;51.988;4.644;2023-11-19T03:19:43;60.10;;;9.85;;
38629;SDS011;24384;51.988;4.644;2023-11-19T03:22:09;48.60;;;8.25;;
38629;SDS011;24384;51.988;4.644;2023-11-19T03:24:36;47.92;;;7.75;;
38629;SDS011;24384;51.988;4.644;2023-11-19T03:27:01;59.08;;;9.20;;
38629;SDS011;24384;51.988;4.644;2023-11-19T03:29:26;51.63;;;8.57;;
38629;SDS011;24384;51.988;4.644;2023-11-19T03:31:53;50.92;;;8.27;;
38629;SDS011;24384;51.988;4.644;2023-11-19T03:34:18;42.88;;;7.20;;
38629;SDS011;24384;51.988;4.644;2023-11-19T03:36:44;60.85;;;9.82;;
38629;SDS011;24384;51.988;4.644;2023-11-19T03:39:10;54.00;;;9.43;;
38629;SDS011;24384;51.988;4.644;2023-11-19T03:41:35;64.85;;;10.95;;
38629;SDS011;24384;51.988;4.644;2023-11-19T03:44:01;71.35;;;11.63;;
38629;SDS011;24384;51.988;4.644;2023-11-19T03:46:26;52.53;;;11.82;;
38629;SDS011;24384;51.988;4.644;2023-11-19T03:48:52;51.95;;;12.13;;
38629;SDS011;24384;51.988;4.644;2023-11-19T03:51:17;66.82;;;10.02;;
38629;SDS011;24384;51.988;4.644;2023-11-19T03:53:45;61.50;;;10.57;;
38629;SDS011;24384;51.988;4.644;2023-11-19T03:56:10;55.50;;;10.13;;
38629;SDS011;24384;51.988;4.644;2023-11-19T03:58:37;64.28;;;11.00;;
38629;SDS011;24384;51.988;4.644;2023-11-19T04:01:03;50.67;;;8.70;;
38629;SDS011;24384;51.988;4.644;2023-11-19T04:03:29;56.00;;;9.52;;
38629;SDS011;24384;51.988;4.644;2023-11-19T04:05:56;50.78;;;8.38;;
38629;SDS011;24384;51.988;4.644;2023-11-19T04:08:21;66.18;;;11.80;;
38629;SDS011;24384;51.988;4.644;2023-11-19T04:10:46;54.83;;;11.35;;
38629;SDS011;24384;51.988;4.644;2023-11-19T04:13:12;46.97;;;10.75;;
38629;SDS011;24384;51.988;4.644;2023-11-19T04:15:37;49.70;;;9.60;;
38629;SDS011;24384;51.988;4.644;2023-11-19T04:18:03;60.20;;;13.68;;
38629;SDS011;24384;51.988;4.644;2023-11-19T04:20:28;54.35;;;10.30;;
38629;SDS011;24384;51.988;4.644;2023-11-19T04:22:53;54.53;;;9.00;;
38629;SDS011;24384;51.988;4.644;2023-11-19T04:25:19;55.15;;;9.93;;
38629;SDS011;24384;51.988;4.644;2023-11-19T04:27:44;57.95;;;8.57;;
38629;SDS011;24384;51.988;4.644;2023-11-19T04:30:10;53.97;;;8.50;;
38629;SDS011;24384;51.988;4.644;2023-11-19T04:32:36;50.67;;;10.73;;
38629;SDS011;24384;51.988;4.644;2023-11-19T04:35:02;48.85;;;10.77;;
38629;SDS011;24384;51.988;4.644;2023-11-19T04:37:28;55.17;;;12.38;;
38629;SDS011;24384;51.988;4.644;2023-11-19T04:39:53;55.05;;;12.05;;
38629;SDS011;24384;51.988;4.644;2023-11-19T04:42:19;47.75;;;8.95;;
38629;SDS011;24384;51.988;4.644;2023-11-19T04:44:49;54.13;;;9.30;;
38629;SDS011;24384;51.988;4.644;2023-11-19T04:47:14;45.92;;;8.93;;
38629;SDS011;24384;51.988;4.644;2023-11-19T04:49:42;45.72;;;9.93;;
38629;SDS011;24384;51.988;4.644;2023-11-19T04:52:08;55.35;;;8.55;;
38629;SDS011;24384;51.988;4.644;2023-11-19T04:54:35;52.45;;;8.75;;
38629;SDS011;24384;51.988;4.644;2023-11-19T04:57:00;65.07;;;11.13;;
38629;SDS011;24384;51.988;4.644;2023-11-19T04:59:25;60.15;;;9.70;;
38629;SDS011;24384;51.988;4.644;2023-11-19T05:01:52;50.85;;;10.90;;
38629;SDS011;24384;51.988;4.644;2023-11-19T05:04:17;47.22;;;7.95;;
38629;SDS011;24384;51.988;4.644;2023-11-19T05:06:43;52.28;;;8.85;;
38629;SDS011;24384;51.988;4.644;2023-11-19T05:09:09;58.63;;;9.00;;
38629;SDS011;24384;51.988;4.644;2023-11-19T05:11:34;51.30;;;9.55;;
38629;SDS011;24384;51.988;4.644;2023-11-19T05:14:00;49.95;;;8.70;;
38629;SDS011;24384;51.988;4.644;2023-11-19T05:16:27;49.72;;;8.38;;
38629;SDS011;24384;51.988;4.644;2023-11-19T05:18:52;53.90;;;10.25;;
38629;SDS011;24384;51.988;4.644;2023-11-19T05:21:18;57.88;;;10.50;;
38629;SDS011;24384;51.988;4.644;2023-11-19T05:23:43;70.28;;;12.40;;
38629;SDS011;24384;51.988;4.644;2023-11-19T05:26:08;54.22;;;9.20;;
38629;SDS011;24384;51.988;4.644;2023-11-19T05:28:35;48.00;;;9.52;;
38629;SDS011;24384;51.988;4.644;2023-11-19T05:31:04;58.67;;;8.73;;
38629;SDS011;24384;51.988;4.644;2023-11-19T05:33:30;46.15;;;10.40;;
38629;SDS011;24384;51.988;4.644;2023-11-19T05:35:56;46.17;;;8.98;;
38629;SDS011;24384;51.988;4.644;2023-11-19T05:38:23;50.45;;;9.20;;
38629;SDS011;24384;51.988;4.644;2023-11-19T05:40:48;57.20;;;12.13;;
38629;SDS011;24384;51.988;4.644;2023-11-19T05:43:15;58.13;;;9.63;;
38629;SDS011;24384;51.988;4.644;2023-11-19T05:45:41;51.45;;;8.25;;
38629;SDS011;24384;51.988;4.644;2023-11-19T05:48:07;53.25;;;10.15;;
38629;SDS011;24384;51.988;4.644;2023-11-19T05:50:33;50.70;;;7.78;;
38629;SDS011;24384;51.988;4.644;2023-11-19T05:52:59;47.75;;;10.55;;
38629;SDS011;24384;51.988;4.644;2023-11-19T05:55:24;54.95;;;9.95;;
38629;SDS011;24384;51.988;4.644;2023-11-19T05:57:51;55.53;;;9.68;;
38629;SDS011;24384;51.988;4.644;2023-11-19T06:00:17;49.38;;;10.93;;
38629;SDS011;24384;51.988;4.644;2023-11-19T06:02:43;61.47;;;10.07;;
38629;SDS011;24384;51.988;4.644;2023-11-19T06:05:08;56.00;;;9.98;;
38629;SDS011;24384;51.988;4.644;2023-11-19T06:07:34;45.30;;;7.25;;
38629;SDS011;24384;51.988;4.644;2023-11-19T06:10:02;44.83;;;7.75;;
38629;SDS011;24384;51.988;4.644;2023-11-19T06:12:31;51.92;;;10.25;;
38629;SDS011;24384;51.988;4.644;2023-11-19T06:14:59;53.78;;;8.98;;
38629;SDS011;24384;51.988;4.644;2023-11-19T06:17:25;42.95;;;8.52;;
38629;SDS011;24384;51.988;4.644;2023-11-19T06:19:50;45.15;;;7.53;;
38629;SDS011;24384;51.988;4.644;2023-11-19T06:22:16;41.58;;;8.27;;
38629;SDS011;24384;51.988;4.644;2023-11-19T06:24:41;58.97;;;11.57;;
38629;SDS011;24384;51.988;4.644;2023-11-19T06:27:07;42.03;;;7.90;;
38629;SDS011;24384;51.988;4.644;2023-11-19T06:29:33;48.75;;;8.75;;
38629;SDS011;24384;51.988;4.644;2023-11-19T06:31:58;48.28;;;8.48;;
38629;SDS011;24384;51.988;4.644;2023-11-19T06:34:23;51.35;;;9.90;;
38629;SDS011;24384;51.988;4.644;2023-11-19T06:36:48;42.42;;;8.23;;
38629;SDS011;24384;51.988;4.644;2023-11-19T06:39:14;53.65;;;8.80;;
38629;SDS011;24384;51.988;4.644;2023-11-19T06:41:44;53.72;;;9.38;;
38629;SDS011;24384;51.988;4.644;2023-11-19T06:44:09;50.05;;;8.93;;
38629;SDS011;24384;51.988;4.644;2023-11-19T06:46:35;41.38;;;7.82;;
38629;SDS011;24384;51.988;4.644;2023-11-19T06:49:00;57.33;;;10.80;;
38629;SDS011;24384;51.988;4.644;2023-11-19T06:51:25;47.80;;;10.88;;
38629;SDS011;24384;51.988;4.644;2023-11-19T06:53:51;52.70;;;9.57;;
38629;SDS011;24384;51.988;4.644;2023-11-19T06:56:19;39.95;;;8.18;;
38629;SDS011;24384;51.988;4.644;2023-11-19T06:58:47;65.00;;;10.45;;
38629;SDS011;24384;51.988;4.644;2023-11-19T07:01:13;41.90;;;8.35;;
38629;SDS011;24384;51.988;4.644;2023-11-19T07:03:40;62.70;;;10.93;;
38629;SDS011;24384;51.988;4.644;2023-11-19T07:06:05;56.72;;;8.68;;
38629;SDS011;24384;51.988;4.644;2023-11-19T07:08:30;47.72;;;8.82;;
38629;SDS011;24384;51.988;4.644;2023-11-19T07:10:56;54.05;;;8.30;;
38629;SDS011;24384;51.988;4.644;2023-11-19T07:13:21;52.78;;;8.13;;
38629;SDS011;24384;51.988;4.644;2023-11-19T07:15:46;47.92;;;7.28;;
38629;SDS011;24384;51.988;4.644;2023-11-19T07:18:12;46.47;;;7.05;;
38629;SDS011;24384;51.988;4.644;2023-11-19T07:20:38;57.13;;;9.40;;
38629;SDS011;24384;51.988;4.644;2023-11-19T07:23:06;71.78;;;10.35;;
38629;SDS011;24384;51.988;4.644;2023-11-19T07:25:31;52.60;;;9.80;;
38629;SDS011;24384;51.988;4.644;2023-11-19T07:27:56;57.13;;;11.77;;
38629;SDS011;24384;51.988;4.644;2023-11-19T07:30:23;40.65;;;7.53;;
38629;SDS011;24384;51.988;4.644;2023-11-19T07:32:49;47.65;;;9.75;;
38629;SDS011;24384;51.988;4.644;2023-11-19T07:35:14;49.53;;;8.52;;
38629;SDS011;24384;51.988;4.644;2023-11-19T07:37:43;58.42;;;13.85;;
38629;SDS011;24384;51.988;4.644;2023-11-19T07:40:10;50.58;;;9.55;;
38629;SDS011;24384;51.988;4.644;2023-11-19T07:42:37;55.42;;;10.80;;
38629;SDS011;24384;51.988;4.644;2023-11-19T07:45:04;53.72;;;9.93;;
38629;SDS011;24384;51.988;4.644;2023-11-19T07:47:30;49.75;;;7.88;;
38629;SDS011;24384;51.988;4.644;2023-11-19T07:49:55;55.92;;;9.32;;
38629;SDS011;24384;51.988;4.644;2023-11-19T07:52:22;56.88;;;9.40;;
38629;SDS011;24384;51.988;4.644;2023-11-19T07:54:48;46.05;;;9.65;;
38629;SDS011;24384;51.988;4.644;2023-11-19T07:57:14;50.70;;;8.52;;
38629;SDS011;24384;51.988;4.644;2023-11-19T07:59:40;55.63;;;11.80;;
38629;SDS011;24384;51.988;4.644;2023-11-19T08:02:06;52.75;;;8.45;;
38629;SDS011;24384;51.988;4.644;2023-11-19T08:04:31;40.63;;;7.28;;
38629;SDS011;24384;51.988;4.644;2023-11-19T08:06:56;51.50;;;8.35;;
38629;SDS011;24384;51.988;4.644;2023-11-19T08:09:21;49.30;;;11.35;;
38629;SDS011;24384;51.988;4.644;2023-11-19T08:11:48;53.17;;;8.77;;
38629;SDS011;24384;51.988;4.644;2023-11-19T08:14:13;42.00;;;8.82;;
38629;SDS011;24384;51.988;4.644;2023-11-19T08:16:39;55.33;;;8.52;;
38629;SDS011;24384;51.988;4.644;2023-11-19T08:19:04;52.97;;;9.10;;
38629;SDS011;24384;51.988;4.644;2023-11-19T08:21:30;44.95;;;8.88;;
38629;SDS011;24384;51.988;4.644;2023-11-19T08:23:55;48.03;;;8.48;;
38629;SDS011;24384;51.988;4.644;2023-11-19T08:26:20;46.20;;;9.18;;
38629;SDS011;24384;51.988;4.644;2023-11-19T08:28:46;49.05;;;9.23;;
38629;SDS011;24384;51.988;4.644;2023-11-19T08:31:11;46.13;;;8.65;;
38629;SDS011;24384;51.988;4.644;2023-11-19T08:33:38;46.92;;;7.90;;
38629;SDS011;24384;51.988;4.644;2023-11-19T08:36:05;51.42;;;8.20;;
38629;SDS011;24384;51.988;4.644;2023-11-19T08:38:31;33.05;;;7.22;;
38629;SDS011;24384;51.988;4.644;2023-11-19T08:40:56;37.58;;;7.30;;
38629;SDS011;24384;51.988;4.644;2023-11-19T08:43:28;43.65;;;9.18;;
38629;SDS011;24384;51.988;4.644;2023-11-19T08:45:53;49.55;;;8.15;;
38629;SDS011;24384;51.988;4.644;2023-11-19T08:48:18;52.38;;;9.15;;
38629;SDS011;24384;51.988;4.644;2023-11-19T08:50:44;43.40;;;10.38;;
38629;SDS011;24384;51.988;4.644;2023-11-19T08:53:09;62.28;;;8.05;;
38629;SDS011;24384;51.988;4.644;2023-11-19T08:55:34;53.28;;;9.85;;
38629;SDS011;24384;51.988;4.644;2023-11-19T08:58:00;49.38;;;8.60;;
38629;SDS011;24384;51.988;4.644;2023-11-19T09:00:26;45.03;;;8.43;;
38629;SDS011;24384;51.988;4.644;2023-11-19T09:02:52;58.92;;;9.80;;
38629;SDS011;24384;51.988;4.644;2023-11-19T09:05:18;48.78;;;10.40;;
38629;SDS011;24384;51.988;4.644;2023-11-19T09:07:43;44.83;;;8.02;;
38629;SDS011;24384;51.988;4.644;2023-11-19T09:10:08;61.80;;;10.95;;
38629;SDS011;24384;51.988;4.644;2023-11-19T09:12:34;50.25;;;8.20;;
38629;SDS011;24384;51.988;4.644;2023-11-19T09:15:00;40.53;;;8.52;;
38629;SDS011;24384;51.988;4.644;2023-11-19T09:17:25;56.55;;;10.48;;
38629;SDS011;24384;51.988;4.644;2023-11-19T09:19:50;56.80;;;11.10;;
38629;SDS011;24384;51.988;4.644;2023-11-19T09:22:17;48.90;;;8.65;;
38629;SDS011;24384;51.988;4.644;2023-11-19T09:24:42;44.22;;;9.52;;
38629;SDS011;24384;51.988;4.644;2023-11-19T09:27:09;53.60;;;9.80;;
38629;SDS011;24384;51.988;4.644;2023-11-19T09:29:34;55.33;;;9.32;;
38629;SDS011;24384;51.988;4.644;2023-11-19T09:31:59;54.03;;;8.93;;
38629;SDS011;24384;51.988;4.644;2023-11-19T09:34:25;50.85;;;7.82;;
38629;SDS011;24384;51.988;4.644;2023-11-19T09:36:50;54.28;;;9.57;;
38629;SDS011;24384;51.988;4.644;2023-11-19T09:39:16;49.50;;;7.90;;
38629;SDS011;24384;51.988;4.644;2023-11-19T09:41:42;41.25;;;7.50;;
38629;SDS011;24384;51.988;4.644;2023-11-19T09:44:09;52.30;;;9.57;;
38629;SDS011;24384;51.988;4.644;2023-11-19T09:46:36;44.17;;;7.60;;
38629;SDS011;24384;51.988;4.644;2023-11-19T09:49:02;48.40;;;9.05;;
38629;SDS011;24384;51.988;4.644;2023-11-19T09:51:29;47.17;;;9.55;;
38629;SDS011;24384;51.988;4.644;2023-11-19T09:53:55;51.67;;;9.52;;
38629;SDS011;24384;51.988;4.644;2023-11-19T09:56:20;51.13;;;8.65;;
38629;SDS011;24384;51.988;4.644;2023-11-19T09:58:47;47.55;;;7.93;;
38629;SDS011;24384;51.988;4.644;2023-11-19T10:01:12;49.08;;;8.18;;
38629;SDS011;24384;51.988;4.644;2023-11-19T10:03:38;43.50;;;7.70;;
38629;SDS011;24384;51.988;4.644;2023-11-19T10:06:08;53.63;;;8.68;;
38629;SDS011;24384;51.988;4.644;2023-11-19T10:08:34;42.22;;;7.80;;
38629;SDS011;24384;51.988;4.644;2023-11-19T10:11:02;44.28;;;8.57;;
38629;SDS011;24384;51.988;4.644;2023-11-19T10:13:28;35.78;;;7.00;;
38629;SDS011;24384;51.988;4.644;2023-11-19T10:15:55;40.45;;;7.60;;
38629;SDS011;24384;51.988;4.644;2023-11-19T10:18:25;37.80;;;8.55;;
38629;SDS011;24384;51.988;4.644;2023-11-19T10:20:51;40.03;;;6.75;;
38629;SDS011;24384;51.988;4.644;2023-11-19T10:23:17;40.80;;;6.90;;
38629;SDS011;24384;51.988;4.644;2023-11-19T10:25:42;33.10;;;7.43;;
38629;SDS011;24384;51.988;4.644;2023-11-19T10:28:08;34.45;;;6.47;;
38629;SDS011;24384;51.988;4.644;2023-11-19T10:30:33;35.13;;;7.90;;
38629;SDS011;24384;51.988;4.644;2023-11-19T10:35:31;29.13;;;6.25;;
38629;SDS011;24384;51.988;4.644;2023-11-19T10:37:58;30.23;;;5.68;;
38629;SDS011;24384;51.988;4.644;2023-11-19T10:40:37;32.22;;;7.40;;
38629;SDS011;24384;51.988;4.644;2023-11-19T10:43:03;32.88;;;6.53;;
38629;SDS011;24384;51.988;4.644;2023-11-19T10:45:28;33.92;;;7.30;;
38629;SDS011;24384;51.988;4.644;2023-11-19T10:47:54;35.15;;;7.50;;
38629;SDS011;24384;51.988;4.644;2023-11-19T10:50:21;35.58;;;6.88;;
38629;SDS011;24384;51.988;4.644;2023-11-19T10:52:48;37.97;;;7.28;;
38629;SDS011;24384;51.988;4.644;2023-11-19T10:55:16;27.70;;;6.68;;
38629;SDS011;24384;51.988;4.644;2023-11-19T10:57:50;36.93;;;7.63;;
38629;SDS011;24384;51.988;4.644;2023-11-19T11:00:16;37.28;;;6.65;;
38629;SDS011;24384;51.988;4.644;2023-11-19T11:02:46;36.85;;;7.05;;
38629;SDS011;24384;51.988;4.644;2023-11-19T11:05:19;41.35;;;7.32;;
38629;SDS011;24384;51.988;4.644;2023-11-19T11:07:46;46.75;;;7.93;;
38629;SDS011;24384;51.988;4.644;2023-11-19T11:10:16;50.50;;;10.68;;
38629;SDS011;24384;51.988;4.644;2023-11-19T11:12:41;47.90;;;8.18;;
38629;SDS011;24384;51.988;4.644;2023-11-19T11:15:08;38.88;;;8.18;;
38629;SDS011;24384;51.988;4.644;2023-11-19T11:17:37;43.53;;;9.85;;
38629;SDS011;24384;51.988;4.644;2023-11-19T11:20:04;48.60;;;10.00;;
38629;SDS011;24384;51.988;4.644;2023-11-19T11:22:34;48.05;;;7.47;;
38629;SDS011;24384;51.988;4.644;2023-11-19T11:25:39;41.28;;;8.40;;
38629;SDS011;24384;51.988;4.644;2023-11-19T11:31:12;40.28;;;7.47;;
38629;SDS011;24384;51.988;4.644;2023-11-19T11:39:35;28.95;;;6.75;;
38629;SDS011;24384;51.988;4.644;2023-11-19T11:56:03;39.75;;;7.57;;
38629;SDS011;24384;51.988;4.644;2023-11-19T11:58:29;33.95;;;7.00;;
38629;SDS011;24384;51.988;4.644;2023-11-19T12:00:57;26.83;;;5.30;;
38629;SDS011;24384;51.988;4.644;2023-11-19T12:03:26;24.23;;;4.95;;
38629;SDS011;24384;51.988;4.644;2023-11-19T12:05:53;36.20;;;5.50;;
38629;SDS011;24384;51.988;4.644;2023-11-19T12:08:18;32.85;;;6.90;;
38629;SDS011;24384;51.988;4.644;2023-11-19T12:13:15;26.85;;;5.82;;
38629;SDS011;24384;51.988;4.644;2023-11-19T12:18:21;33.47;;;5.25;;
38629;SDS011;24384;51.988;4.644;2023-11-19T12:20:48;26.10;;;6.20;;
38629;SDS011;24384;51.988;4.644;2023-11-19T12:23:14;34.60;;;6.13;;
38629;SDS011;24384;51.988;4.644;2023-11-19T12:25:39;39.65;;;7.03;;
38629;SDS011;24384;51.988;4.644;2023-11-19T12:28:05;29.58;;;6.38;;
38629;SDS011;24384;51.988;4.644;2023-11-19T12:30:30;34.42;;;6.90;;
38629;SDS011;24384;51.988;4.644;2023-11-19T12:32:56;41.17;;;6.10;;
38629;SDS011;24384;51.988;4.644;2023-11-19T12:35:21;44.65;;;8.15;;
38629;SDS011;24384;51.988;4.644;2023-11-19T12:37:48;41.83;;;8.15;;
38629;SDS011;24384;51.988;4.644;2023-11-19T12:40:18;37.83;;;5.97;;
38629;SDS011;24384;51.988;4.644;2023-11-19T12:42:50;41.53;;;7.22;;
38629;SDS011;24384;51.988;4.644;2023-11-19T12:45:17;40.75;;;7.65;;
38629;SDS011;24384;51.988;4.644;2023-11-19T12:47:44;39.50;;;7.40;;
38629;SDS011;24384;51.988;4.644;2023-11-19T12:50:11;41.45;;;9.45;;
38629;SDS011;24384;51.988;4.644;2023-11-19T12:52:37;41.10;;;8.00;;
38629;SDS011;24384;51.988;4.644;2023-11-19T12:55:03;44.15;;;7.53;;
38629;SDS011;24384;51.988;4.644;2023-11-19T12:57:41;45.45;;;9.75;;
38629;SDS011;24384;51.988;4.644;2023-11-19T13:00:07;43.17;;;8.18;;
38629;SDS011;24384;51.988;4.644;2023-11-19T13:02:46;43.85;;;10.13;;
38629;SDS011;24384;51.988;4.644;2023-11-19T13:05:23;47.13;;;7.10;;
38629;SDS011;24384;51.988;4.644;2023-11-19T13:07:58;42.42;;;8.70;;
38629;SDS011;24384;51.988;4.644;2023-11-19T13:10:34;38.17;;;6.97;;
38629;SDS011;24384;51.988;4.644;2023-11-19T13:13:15;44.67;;;8.95;;
38629;SDS011;24384;51.988;4.644;2023-11-19T13:15:41;39.15;;;6.55;;
38629;SDS011;24384;51.988;4.644;2023-11-19T13:18:07;40.20;;;6.43;;
38629;SDS011;24384;51.988;4.644;2023-11-19T13:20:33;39.92;;;8.63;;
38629;SDS011;24384;51.988;4.644;2023-11-19T13:22:59;40.97;;;6.93;;
38629;SDS011;24384;51.988;4.644;2023-11-19T13:25:26;36.47;;;6.85;;
38629;SDS011;24384;51.988;4.644;2023-11-19T13:27:54;44.00;;;8.60;;
38629;SDS011;24384;51.988;4.644;2023-11-19T13:30:23;39.17;;;7.78;;
38629;SDS011;24384;51.988;4.644;2023-11-19T13:32:49;34.17;;;6.63;;
38629;SDS011;24384;51.988;4.644;2023-11-19T13:35:17;42.50;;;6.30;;
38629;SDS011;24384;51.988;4.644;2023-11-19T13:37:43;51.20;;;7.20;;
38629;SDS011;24384;51.988;4.644;2023-11-19T13:40:09;33.85;;;6.45;;
38629;SDS011;24384;51.988;4.644;2023-11-19T13:42:38;37.20;;;7.30;;
38629;SDS011;24384;51.988;4.644;2023-11-19T13:45:07;36.15;;;6.65;;
38629;SDS011;24384;51.988;4.644;2023-11-19T13:47:36;34.88;;;6.63;;
38629;SDS011;24384;51.988;4.644;2023-11-19T13:50:02;33.60;;;7.43;;
38629;SDS011;24384;51.988;4.644;2023-11-19T13:52:31;42.05;;;7.82;;
38629;SDS011;24384;51.988;4.644;2023-11-19T13:54:56;36.15;;;7.72;;
38629;SDS011;24384;51.988;4.644;2023-11-19T13:57:21;38.85;;;7.07;;
38629;SDS011;24384;51.988;4.644;2023-11-19T13:59:47;35.40;;;6.00;;
38629;SDS011;24384;51.988;4.644;2023-11-19T14:02:12;30.27;;;6.80;;
38629;SDS011;24384;51.988;4.644;2023-11-19T14:04:37;38.72;;;7.57;;
38629;SDS011;24384;51.988;4.644;2023-11-19T14:07:03;40.63;;;6.85;;
38629;SDS011;24384;51.988;4.644;2023-11-19T14:09:28;42.78;;;8.05;;
38629;SDS011;24384;51.988;4.644;2023-11-19T14:11:55;37.22;;;7.95;;
38629;SDS011;24384;51.988;4.644;2023-11-19T14:14:20;45.90;;;8.30;;
38629;SDS011;24384;51.988;4.644;2023-11-19T14:16:45;35.33;;;6.47;;
38629;SDS011;24384;51.988;4.644;2023-11-19T14:19:12;35.85;;;7.35;;
38629;SDS011;24384;51.988;4.644;2023-11-19T14:21:38;53.05;;;7.50;;
38629;SDS011;24384;51.988;4.644;2023-11-19T14:24:04;40.95;;;8.27;;
38629;SDS011;24384;51.988;4.644;2023-11-19T14:26:29;48.53;;;9.90;;
38629;SDS011;24384;51.988;4.644;2023-11-19T14:28:56;46.65;;;8.85;;
38629;SDS011;24384;51.988;4.644;2023-11-19T14:31:21;42.15;;;8.88;;
38629;SDS011;24384;51.988;4.644;2023-11-19T14:33:47;42.25;;;7.88;;
38629;SDS011;24384;51.988;4.644;2023-11-19T14:36:13;35.22;;;5.78;;
38629;SDS011;24384;51.988;4.644;2023-11-19T14:38:38;35.08;;;5.93;;
38629;SDS011;24384;51.988;4.644;2023-11-19T14:41:03;30.45;;;5.82;;
38629;SDS011;24384;51.988;4.644;2023-11-19T14:43:30;45.33;;;8.48;;
38629;SDS011;24384;51.988;4.644;2023-11-19T14:45:55;40.20;;;8.20;;
38629;SDS011;24384;51.988;4.644;2023-11-19T14:48:20;36.03;;;7.82;;
38629;SDS011;24384;51.988;4.644;2023-11-19T14:50:46;42.53;;;7.80;;
38629;SDS011;24384;51.988;4.644;2023-11-19T14:53:11;35.70;;;5.95;;
38629;SDS011;24384;51.988;4.644;2023-11-19T14:55:36;34.70;;;6.10;;
38629;SDS011;24384;51.988;4.644;2023-11-19T14:58:01;39.38;;;6.85;;
38629;SDS011;24384;51.988;4.644;2023-11-19T15:00:27;49.53;;;9.32;;
38629;SDS011;24384;51.988;4.644;2023-11-19T15:02:52;41.28;;;6.25;;